sensor_id;sensor_type;location;lat;lon;timestamp;P1;durP1;ratioP1;P2;durP2;ratioP2
11173;SDS011;5643;50.856;12.088;2023-03-21T00:26:14;0.80;;;0.80;;
11173;SDS011;5643;50.856;12.088;2023-03-21T00:28:42;0.60;;;0.60;;
11173;SDS011;5643;50.856;12.088;2023-03-21T00:31:09;0.93;;;0.80;;
11173;SDS011;5643;50.856;12.088;2023-03-21T00:33:36;0.80;;;0.80;;
11173;SDS011;5643;50.856;12.088;2023-03-21T00:36:04;1.07;;;0.90;;
11173;SDS011;5643;50.856;12.088;2023-03-21T00:38:32;1.00;;;1.00;;
11173;SDS011;5643;50.856;12.088;2023-03-21T00:40:59;0.87;;;0.87;;
11173;SDS011;5643;50.856;12.088;2023-03-21T00:43:28;0.80;;;0.80;;
11173;SDS011;5643;50.856;12.088;2023-03-21T00:45:56;1.10;;;0.90;;
11173;SDS011;5643;50.856;12.088;2023-03-21T00:48:24;1.20;;;1.10;;
11173;SDS011;5643;50.856;12.088;2023-03-21T00:50:51;0.83;;;0.83;;
11173;SDS011;5643;50.856;12.088;2023-03-21T00:53:20;0.93;;;0.93;;
11173;SDS011;5643;50.856;12.088;2023-03-21T00:55:47;1.20;;;1.10;;
11173;SDS011;5643;50.856;12.088;2023-03-21T00:58:15;0.90;;;0.90;;
11173;SDS011;5643;50.856;12.088;2023-03-21T01:00:43;1.73;;;1.20;;
11173;SDS011;5643;50.856;12.088;2023-03-21T01:03:12;1.10;;;1.00;;
11173;SDS011;5643;50.856;12.088;2023-03-21T01:05:40;2.07;;;1.00;;
11173;SDS011;5643;50.856;12.088;2023-03-21T01:08:26;1.10;;;1.03;;
11173;SDS011;5643;50.856;12.088;2023-03-21T01:10:54;1.40;;;1.30;;
11173;SDS011;5643;50.856;12.088;2023-03-21T01:13:23;1.23;;;1.13;;
11173;SDS011;5643;50.856;12.088;2023-03-21T01:15:54;1.40;;;1.30;;
11173;SDS011;5643;50.856;12.088;2023-03-21T01:18:22;1.27;;;1.00;;
11173;SDS011;5643;50.856;12.088;2023-03-21T01:20:52;1.50;;;1.40;;
11173;SDS011;5643;50.856;12.088;2023-03-21T01:23:19;1.67;;;1.40;;
11173;SDS011;5643;50.856;12.088;2023-03-21T01:25:47;1.30;;;1.20;;
11173;SDS011;5643;50.856;12.088;2023-03-21T01:28:15;1.20;;;1.10;;
11173;SDS011;5643;50.856;12.088;2023-03-21T01:30:44;1.00;;;1.00;;
11173;SDS011;5643;50.856;12.088;2023-03-21T01:33:13;1.10;;;1.00;;
11173;SDS011;5643;50.856;12.088;2023-03-21T01:35:40;1.20;;;1.10;;
11173;SDS011;5643;50.856;12.088;2023-03-21T01:38:08;1.33;;;1.23;;
11173;SDS011;5643;50.856;12.088;2023-03-21T01:40:37;1.07;;;1.00;;
11173;SDS011;5643;50.856;12.088;2023-03-21T01:43:08;0.90;;;0.80;;
11173;SDS011;5643;50.856;12.088;2023-03-21T01:48:25;0.90;;;0.90;;
11173;SDS011;5643;50.856;12.088;2023-03-21T01:50:53;1.40;;;1.10;;
11173;SDS011;5643;50.856;12.088;2023-03-21T01:53:23;0.83;;;0.83;;
11173;SDS011;5643;50.856;12.088;2023-03-21T01:55:54;0.97;;;0.97;;
11173;SDS011;5643;50.856;12.088;2023-03-21T01:58:22;1.20;;;1.00;;
11173;SDS011;5643;50.856;12.088;2023-03-21T02:00:50;1.00;;;0.80;;
11173;SDS011;5643;50.856;12.088;2023-03-21T02:03:18;0.73;;;0.73;;
11173;SDS011;5643;50.856;12.088;2023-03-21T02:05:49;0.90;;;0.90;;
11173;SDS011;5643;50.856;12.088;2023-03-21T02:08:17;0.73;;;0.73;;
11173;SDS011;5643;50.856;12.088;2023-03-21T02:10:46;1.00;;;0.90;;
11173;SDS011;5643;50.856;12.088;2023-03-21T02:13:14;1.30;;;1.00;;
11173;SDS011;5643;50.856;12.088;2023-03-21T02:15:41;1.00;;;0.77;;
11173;SDS011;5643;50.856;12.088;2023-03-21T02:18:13;1.13;;;1.03;;
11173;SDS011;5643;50.856;12.088;2023-03-21T02:20:56;1.10;;;0.90;;
11173;SDS011;5643;50.856;12.088;2023-03-21T02:23:35;1.13;;;1.00;;
11173;SDS011;5643;50.856;12.088;2023-03-21T02:28:56;1.37;;;1.00;;
11173;SDS011;5643;50.856;12.088;2023-03-21T02:31:30;0.80;;;0.80;;
11173;SDS011;5643;50.856;12.088;2023-03-21T02:34:08;1.00;;;0.90;;
11173;SDS011;5643;50.856;12.088;2023-03-21T02:39:29;0.90;;;0.90;;
11173;SDS011;5643;50.856;12.088;2023-03-21T02:42:01;0.60;;;0.50;;
11173;SDS011;5643;50.856;12.088;2023-03-21T02:44:31;1.03;;;0.90;;
11173;SDS011;5643;50.856;12.088;2023-03-21T02:47:02;1.17;;;0.83;;
11173;SDS011;5643;50.856;12.088;2023-03-21T02:49:31;0.80;;;0.80;;
11173;SDS011;5643;50.856;12.088;2023-03-21T02:52:03;1.03;;;0.90;;
11173;SDS011;5643;50.856;12.088;2023-03-21T02:54:34;0.73;;;0.70;;
11173;SDS011;5643;50.856;12.088;2023-03-21T02:57:02;0.90;;;0.87;;
11173;SDS011;5643;50.856;12.088;2023-03-21T02:59:30;0.80;;;0.80;;
11173;SDS011;5643;50.856;12.088;2023-03-21T03:01:57;1.43;;;1.00;;
11173;SDS011;5643;50.856;12.088;2023-03-21T03:04:26;0.80;;;0.77;;
11173;SDS011;5643;50.856;12.088;2023-03-21T03:07:00;0.83;;;0.83;;
11173;SDS011;5643;50.856;12.088;2023-03-21T03:09:29;1.37;;;0.87;;
11173;SDS011;5643;50.856;12.088;2023-03-21T03:12:06;0.83;;;0.83;;
11173;SDS011;5643;50.856;12.088;2023-03-21T03:14:42;0.70;;;0.70;;
11173;SDS011;5643;50.856;12.088;2023-03-21T03:17:16;1.40;;;0.90;;
11173;SDS011;5643;50.856;12.088;2023-03-21T03:19:53;0.70;;;0.70;;
11173;SDS011;5643;50.856;12.088;2023-03-21T03:22:24;0.97;;;0.67;;
11173;SDS011;5643;50.856;12.088;2023-03-21T03:24:53;0.87;;;0.80;;
11173;SDS011;5643;50.856;12.088;2023-03-21T05:29:18;1.20;;;1.20;;
11173;SDS011;5643;50.856;12.088;2023-03-21T05:31:46;1.80;;;1.70;;
11173;SDS011;5643;50.856;12.088;2023-03-21T05:34:13;1.60;;;1.50;;
11173;SDS011;5643;50.856;12.088;2023-03-21T05:36:41;1.60;;;1.50;;
11173;SDS011;5643;50.856;12.088;2023-03-21T05:39:08;1.60;;;1.50;;
11173;SDS011;5643;50.856;12.088;2023-03-21T05:41:36;1.50;;;1.40;;
11173;SDS011;5643;50.856;12.088;2023-03-21T05:44:03;1.57;;;1.30;;
11173;SDS011;5643;50.856;12.088;2023-03-21T05:46:32;1.83;;;1.70;;
11173;SDS011;5643;50.856;12.088;2023-03-21T05:49:00;1.70;;;1.60;;
11173;SDS011;5643;50.856;12.088;2023-03-21T05:51:27;1.60;;;1.50;;
11173;SDS011;5643;50.856;12.088;2023-03-21T05:53:55;1.90;;;1.80;;
11173;SDS011;5643;50.856;12.088;2023-03-21T05:56:22;1.63;;;1.53;;
11173;SDS011;5643;50.856;12.088;2023-03-21T05:58:49;1.87;;;1.60;;
11173;SDS011;5643;50.856;12.088;2023-03-21T06:01:17;1.70;;;1.60;;
11173;SDS011;5643;50.856;12.088;2023-03-21T06:03:46;2.00;;;1.80;;
11173;SDS011;5643;50.856;12.088;2023-03-21T06:06:14;2.33;;;1.90;;
11173;SDS011;5643;50.856;12.088;2023-03-21T06:08:41;1.90;;;1.80;;
11173;SDS011;5643;50.856;12.088;2023-03-21T06:11:11;1.60;;;1.50;;
11173;SDS011;5643;50.856;12.088;2023-03-21T06:13:43;2.27;;;2.00;;
11173;SDS011;5643;50.856;12.088;2023-03-21T06:16:12;2.27;;;1.90;;
11173;SDS011;5643;50.856;12.088;2023-03-21T06:18:39;2.10;;;1.90;;
11173;SDS011;5643;50.856;12.088;2023-03-21T06:21:07;1.73;;;1.63;;
11173;SDS011;5643;50.856;12.088;2023-03-21T06:23:35;2.30;;;2.10;;
11173;SDS011;5643;50.856;12.088;2023-03-21T06:26:02;2.93;;;2.03;;
11173;SDS011;5643;50.856;12.088;2023-03-21T06:28:30;2.30;;;2.10;;
11173;SDS011;5643;50.856;12.088;2023-03-21T06:30:58;1.73;;;1.63;;
11173;SDS011;5643;50.856;12.088;2023-03-21T06:33:26;1.97;;;1.70;;
11173;SDS011;5643;50.856;12.088;2023-03-21T06:35:53;2.33;;;2.13;;
11173;SDS011;5643;50.856;12.088;2023-03-21T06:38:23;2.20;;;2.00;;
11173;SDS011;5643;50.856;12.088;2023-03-21T06:40:51;2.70;;;2.50;;
11173;SDS011;5643;50.856;12.088;2023-03-21T06:43:18;2.57;;;2.37;;
11173;SDS011;5643;50.856;12.088;2023-03-21T06:45:49;2.10;;;1.90;;
11173;SDS011;5643;50.856;12.088;2023-03-21T06:48:17;2.93;;;2.67;;
11173;SDS011;5643;50.856;12.088;2023-03-21T06:50:44;2.13;;;1.93;;
11173;SDS011;5643;50.856;12.088;2023-03-21T06:53:14;2.43;;;2.20;;
11173;SDS011;5643;50.856;12.088;2023-03-21T06:55:47;2.80;;;2.60;;
11173;SDS011;5643;50.856;12.088;2023-03-21T06:58:14;3.27;;;2.70;;
11173;SDS011;5643;50.856;12.088;2023-03-21T07:00:42;2.60;;;2.40;;
11173;SDS011;5643;50.856;12.088;2023-03-21T07:03:11;2.50;;;2.30;;
11173;SDS011;5643;50.856;12.088;2023-03-21T07:05:39;2.00;;;1.90;;
11173;SDS011;5643;50.856;12.088;2023-03-21T07:08:07;2.43;;;2.23;;
11173;SDS011;5643;50.856;12.088;2023-03-21T07:10:37;2.13;;;1.93;;
11173;SDS011;5643;50.856;12.088;2023-03-21T07:13:07;2.37;;;1.97;;
11173;SDS011;5643;50.856;12.088;2023-03-21T07:15:34;2.00;;;1.80;;
11173;SDS011;5643;50.856;12.088;2023-03-21T07:18:03;2.40;;;2.20;;
11173;SDS011;5643;50.856;12.088;2023-03-21T07:20:31;2.50;;;2.30;;
11173;SDS011;5643;50.856;12.088;2023-03-21T07:22:58;2.27;;;2.07;;
11173;SDS011;5643;50.856;12.088;2023-03-21T07:25:26;2.10;;;1.90;;
11173;SDS011;5643;50.856;12.088;2023-03-21T07:27:53;3.63;;;2.30;;
11173;SDS011;5643;50.856;12.088;2023-03-21T07:30:23;2.30;;;2.10;;
11173;SDS011;5643;50.856;12.088;2023-03-21T07:32:50;2.60;;;2.13;;
11173;SDS011;5643;50.856;12.088;2023-03-21T07:35:18;2.30;;;2.10;;
11173;SDS011;5643;50.856;12.088;2023-03-21T07:37:45;2.30;;;2.10;;
11173;SDS011;5643;50.856;12.088;2023-03-21T07:40:13;2.43;;;2.10;;
11173;SDS011;5643;50.856;12.088;2023-03-21T07:42:43;2.30;;;2.10;;
11173;SDS011;5643;50.856;12.088;2023-03-21T07:45:10;2.73;;;2.20;;
11173;SDS011;5643;50.856;12.088;2023-03-21T07:47:42;2.23;;;2.03;;
11173;SDS011;5643;50.856;12.088;2023-03-21T07:50:09;1.93;;;1.80;;
11173;SDS011;5643;50.856;12.088;2023-03-21T07:52:37;2.50;;;2.30;;
11173;SDS011;5643;50.856;12.088;2023-03-21T07:55:04;2.40;;;2.20;;
11173;SDS011;5643;50.856;12.088;2023-03-21T07:57:32;2.03;;;1.90;;
11173;SDS011;5643;50.856;12.088;2023-03-21T08:00:00;2.17;;;2.00;;
11173;SDS011;5643;50.856;12.088;2023-03-21T08:02:28;2.00;;;1.90;;
11173;SDS011;5643;50.856;12.088;2023-03-21T08:04:58;2.20;;;2.00;;
11173;SDS011;5643;50.856;12.088;2023-03-21T08:07:25;2.10;;;1.90;;
11173;SDS011;5643;50.856;12.088;2023-03-21T08:09:53;3.03;;;2.40;;
11173;SDS011;5643;50.856;12.088;2023-03-21T08:12:21;2.70;;;2.40;;
11173;SDS011;5643;50.856;12.088;2023-03-21T08:14:48;2.77;;;2.50;;
11173;SDS011;5643;50.856;12.088;2023-03-21T08:17:15;2.23;;;2.03;;
11173;SDS011;5643;50.856;12.088;2023-03-21T08:19:43;1.83;;;1.73;;
11173;SDS011;5643;50.856;12.088;2023-03-21T08:22:12;2.40;;;2.07;;
11173;SDS011;5643;50.856;12.088;2023-03-21T08:24:40;2.03;;;1.87;;
11173;SDS011;5643;50.856;12.088;2023-03-21T08:27:12;1.73;;;1.60;;
11173;SDS011;5643;50.856;12.088;2023-03-21T09:33:30;2.77;;;1.83;;
11173;SDS011;5643;50.856;12.088;2023-03-21T09:36:00;2.23;;;1.57;;
11173;SDS011;5643;50.856;12.088;2023-03-21T09:38:27;2.43;;;1.80;;
11173;SDS011;5643;50.856;12.088;2023-03-21T09:41:03;3.10;;;1.50;;
11173;SDS011;5643;50.856;12.088;2023-03-21T09:43:42;1.60;;;1.33;;
11173;SDS011;5643;50.856;12.088;2023-03-21T09:46:16;1.10;;;1.10;;
11173;SDS011;5643;50.856;12.088;2023-03-21T09:48:48;1.40;;;1.30;;
11173;SDS011;5643;50.856;12.088;2023-03-21T09:51:18;2.00;;;1.30;;
11173;SDS011;5643;50.856;12.088;2023-03-21T09:53:47;2.40;;;1.57;;
11173;SDS011;5643;50.856;12.088;2023-03-21T09:56:15;1.83;;;1.33;;
11173;SDS011;5643;50.856;12.088;2023-03-21T09:58:43;1.40;;;1.00;;
11173;SDS011;5643;50.856;12.088;2023-03-21T10:01:16;0.93;;;0.90;;
11173;SDS011;5643;50.856;12.088;2023-03-21T10:03:53;1.40;;;1.30;;
11173;SDS011;5643;50.856;12.088;2023-03-21T10:06:22;1.60;;;1.40;;
11173;SDS011;5643;50.856;12.088;2023-03-21T10:08:53;1.30;;;1.20;;
11173;SDS011;5643;50.856;12.088;2023-03-21T10:11:23;0.90;;;0.90;;
11173;SDS011;5643;50.856;12.088;2023-03-21T10:13:53;1.47;;;1.10;;
11173;SDS011;5643;50.856;12.088;2023-03-21T10:16:24;1.27;;;1.17;;
11173;SDS011;5643;50.856;12.088;2023-03-21T10:18:55;1.60;;;1.40;;
11173;SDS011;5643;50.856;12.088;2023-03-21T10:21:23;1.30;;;1.20;;
11173;SDS011;5643;50.856;12.088;2023-03-21T10:23:51;1.67;;;1.43;;
11173;SDS011;5643;50.856;12.088;2023-03-21T10:26:20;1.87;;;1.10;;
11173;SDS011;5643;50.856;12.088;2023-03-21T10:28:48;2.33;;;1.50;;
11173;SDS011;5643;50.856;12.088;2023-03-21T10:31:17;1.50;;;1.30;;
11173;SDS011;5643;50.856;12.088;2023-03-21T10:33:45;1.30;;;1.20;;
11173;SDS011;5643;50.856;12.088;2023-03-21T10:36:16;2.00;;;1.20;;
11173;SDS011;5643;50.856;12.088;2023-03-21T10:38:45;2.17;;;1.30;;
11173;SDS011;5643;50.856;12.088;2023-03-21T10:41:13;1.27;;;1.10;;
11173;SDS011;5643;50.856;12.088;2023-03-21T10:43:41;1.20;;;1.10;;
11173;SDS011;5643;50.856;12.088;2023-03-21T10:46:11;0.73;;;0.73;;
11173;SDS011;5643;50.856;12.088;2023-03-21T10:48:39;1.73;;;1.10;;
11173;SDS011;5643;50.856;12.088;2023-03-21T10:51:11;1.00;;;1.00;;
11173;SDS011;5643;50.856;12.088;2023-03-21T10:53:44;1.20;;;1.10;;
11173;SDS011;5643;50.856;12.088;2023-03-21T10:56:12;1.00;;;1.00;;
11173;SDS011;5643;50.856;12.088;2023-03-21T10:58:40;0.90;;;0.90;;
11173;SDS011;5643;50.856;12.088;2023-03-21T11:01:10;1.03;;;0.90;;
11173;SDS011;5643;50.856;12.088;2023-03-21T11:03:42;1.67;;;1.10;;
11173;SDS011;5643;50.856;12.088;2023-03-21T11:06:21;0.63;;;0.63;;
11173;SDS011;5643;50.856;12.088;2023-03-21T11:08:53;1.70;;;1.07;;
11173;SDS011;5643;50.856;12.088;2023-03-21T11:11:23;0.90;;;0.90;;
11173;SDS011;5643;50.856;12.088;2023-03-21T11:13:56;1.60;;;1.20;;
11173;SDS011;5643;50.856;12.088;2023-03-21T11:16:25;1.60;;;1.00;;
11173;SDS011;5643;50.856;12.088;2023-03-21T11:19:12;1.83;;;1.27;;
11173;SDS011;5643;50.856;12.088;2023-03-21T11:21:39;1.10;;;1.00;;
11173;SDS011;5643;50.856;12.088;2023-03-21T11:24:10;1.23;;;1.10;;
11173;SDS011;5643;50.856;12.088;2023-03-21T11:26:39;0.97;;;0.90;;
11173;SDS011;5643;50.856;12.088;2023-03-21T11:29:17;1.37;;;0.90;;
11173;SDS011;5643;50.856;12.088;2023-03-21T11:31:47;1.53;;;1.03;;
11173;SDS011;5643;50.856;12.088;2023-03-21T12:35:16;0.87;;;0.70;;
11173;SDS011;5643;50.856;12.088;2023-03-21T12:37:49;1.13;;;0.80;;
11173;SDS011;5643;50.856;12.088;2023-03-21T12:40:21;1.50;;;1.00;;
11173;SDS011;5643;50.856;12.088;2023-03-21T12:43:01;0.57;;;0.57;;
11173;SDS011;5643;50.856;12.088;2023-03-21T12:45:32;0.83;;;0.83;;
11173;SDS011;5643;50.856;12.088;2023-03-21T12:48:04;1.03;;;0.93;;
11173;SDS011;5643;50.856;12.088;2023-03-21T12:50:34;0.90;;;0.80;;
11173;SDS011;5643;50.856;12.088;2023-03-21T12:53:17;0.60;;;0.53;;
11173;SDS011;5643;50.856;12.088;2023-03-21T12:55:49;1.52;;;0.73;;
11173;SDS011;5643;50.856;12.088;2023-03-21T12:58:18;1.37;;;0.80;;
11173;SDS011;5643;50.856;12.088;2023-03-21T13:00:48;0.70;;;0.65;;
11173;SDS011;5643;50.856;12.088;2023-03-21T13:03:18;0.68;;;0.65;;
11173;SDS011;5643;50.856;12.088;2023-03-21T13:05:48;0.57;;;0.57;;
11173;SDS011;5643;50.856;12.088;2023-03-21T13:08:19;1.70;;;0.80;;
11173;SDS011;5643;50.856;12.088;2023-03-21T13:10:48;0.98;;;0.60;;
11173;SDS011;5643;50.856;12.088;2023-03-21T13:13:17;0.50;;;0.50;;
11173;SDS011;5643;50.856;12.088;2023-03-21T13:15:50;0.45;;;0.45;;
11173;SDS011;5643;50.856;12.088;2023-03-21T13:18:23;1.05;;;0.80;;
11173;SDS011;5643;50.856;12.088;2023-03-21T13:20:55;1.58;;;0.68;;
11173;SDS011;5643;50.856;12.088;2023-03-21T13:23:23;0.80;;;0.50;;
11173;SDS011;5643;50.856;12.088;2023-03-21T13:25:53;0.60;;;0.60;;
11173;SDS011;5643;50.856;12.088;2023-03-21T13:28:25;1.00;;;0.80;;
11173;SDS011;5643;50.856;12.088;2023-03-21T13:30:55;0.93;;;0.68;;
11173;SDS011;5643;50.856;12.088;2023-03-21T13:33:42;0.77;;;0.52;;
11173;SDS011;5643;50.856;12.088;2023-03-21T13:36:13;0.80;;;0.70;;
11173;SDS011;5643;50.856;12.088;2023-03-21T13:38:48;0.70;;;0.60;;
11173;SDS011;5643;50.856;12.088;2023-03-21T13:41:16;0.60;;;0.60;;
11173;SDS011;5643;50.856;12.088;2023-03-21T13:43:50;1.47;;;0.80;;
11173;SDS011;5643;50.856;12.088;2023-03-21T13:46:33;0.73;;;0.70;;
11173;SDS011;5643;50.856;12.088;2023-03-21T13:49:04;1.67;;;1.57;;
11173;SDS011;5643;50.856;12.088;2023-03-21T13:51:45;1.40;;;1.30;;
11173;SDS011;5643;50.856;12.088;2023-03-21T13:54:17;1.63;;;1.40;;
11173;SDS011;5643;50.856;12.088;2023-03-21T13:56:49;0.73;;;0.70;;
11173;SDS011;5643;50.856;12.088;2023-03-21T13:59:34;0.90;;;0.80;;
11173;SDS011;5643;50.856;12.088;2023-03-21T14:04:55;0.60;;;0.50;;
11173;SDS011;5643;50.856;12.088;2023-03-21T14:07:26;0.93;;;0.60;;
11173;SDS011;5643;50.856;12.088;2023-03-21T14:09:55;0.97;;;0.50;;
11173;SDS011;5643;50.856;12.088;2023-03-21T14:12:25;1.10;;;0.60;;
11173;SDS011;5643;50.856;12.088;2023-03-21T14:14:56;0.80;;;0.47;;
11173;SDS011;5643;50.856;12.088;2023-03-21T14:17:28;0.77;;;0.50;;
11173;SDS011;5643;50.856;12.088;2023-03-21T14:19:57;0.70;;;0.70;;
11173;SDS011;5643;50.856;12.088;2023-03-21T14:22:27;1.03;;;0.60;;
11173;SDS011;5643;50.856;12.088;2023-03-21T14:24:55;0.67;;;0.53;;
11173;SDS011;5643;50.856;12.088;2023-03-21T14:27:23;0.77;;;0.50;;
11173;SDS011;5643;50.856;12.088;2023-03-21T14:29:52;0.67;;;0.50;;
11173;SDS011;5643;50.856;12.088;2023-03-21T14:32:20;0.63;;;0.50;;
11173;SDS011;5643;50.856;12.088;2023-03-21T16:36:58;1.40;;;1.00;;
11173;SDS011;5643;50.856;12.088;2023-03-21T16:39:25;1.33;;;0.97;;
11173;SDS011;5643;50.856;12.088;2023-03-21T16:41:53;1.07;;;0.80;;
11173;SDS011;5643;50.856;12.088;2023-03-21T16:44:21;1.40;;;0.90;;
11173;SDS011;5643;50.856;12.088;2023-03-21T16:46:49;1.07;;;0.60;;
11173;SDS011;5643;50.856;12.088;2023-03-21T16:49:18;1.07;;;0.60;;
11173;SDS011;5643;50.856;12.088;2023-03-21T16:51:46;2.37;;;0.90;;
11173;SDS011;5643;50.856;12.088;2023-03-21T16:54:14;0.87;;;0.70;;
11173;SDS011;5643;50.856;12.088;2023-03-21T16:56:42;0.73;;;0.70;;
11173;SDS011;5643;50.856;12.088;2023-03-21T16:59:11;0.70;;;0.60;;
11173;SDS011;5643;50.856;12.088;2023-03-21T17:01:39;0.80;;;0.80;;
11173;SDS011;5643;50.856;12.088;2023-03-21T17:04:07;1.37;;;0.97;;
11173;SDS011;5643;50.856;12.088;2023-03-21T17:06:38;0.63;;;0.63;;
11173;SDS011;5643;50.856;12.088;2023-03-21T17:09:09;1.10;;;1.00;;
11173;SDS011;5643;50.856;12.088;2023-03-21T17:11:40;1.50;;;1.07;;
11173;SDS011;5643;50.856;12.088;2023-03-21T17:14:07;1.30;;;1.20;;
11173;SDS011;5643;50.856;12.088;2023-03-21T17:16:35;1.17;;;1.00;;
11173;SDS011;5643;50.856;12.088;2023-03-21T17:19:08;1.50;;;0.93;;
11173;SDS011;5643;50.856;12.088;2023-03-21T17:21:36;0.70;;;0.70;;
11173;SDS011;5643;50.856;12.088;2023-03-21T17:24:03;0.87;;;0.70;;
11173;SDS011;5643;50.856;12.088;2023-03-21T17:26:31;1.17;;;0.80;;
11173;SDS011;5643;50.856;12.088;2023-03-21T17:28:59;1.63;;;1.00;;
11173;SDS011;5643;50.856;12.088;2023-03-21T17:31:31;1.27;;;0.80;;
11173;SDS011;5643;50.856;12.088;2023-03-21T17:33:59;1.60;;;1.00;;
11173;SDS011;5643;50.856;12.088;2023-03-21T17:36:27;1.10;;;1.00;;
11173;SDS011;5643;50.856;12.088;2023-03-21T18:37:04;1.80;;;1.70;;
11173;SDS011;5643;50.856;12.088;2023-03-21T18:39:32;1.80;;;1.70;;
11173;SDS011;5643;50.856;12.088;2023-03-21T19:42:53;1.30;;;1.20;;
11173;SDS011;5643;50.856;12.088;2023-03-21T19:45:21;1.73;;;1.30;;
11173;SDS011;5643;50.856;12.088;2023-03-21T19:47:49;2.37;;;1.50;;
11173;SDS011;5643;50.856;12.088;2023-03-21T19:50:16;1.40;;;1.20;;
11173;SDS011;5643;50.856;12.088;2023-03-21T19:52:44;1.57;;;1.37;;
11173;SDS011;5643;50.856;12.088;2023-03-21T19:55:13;2.37;;;1.37;;
11173;SDS011;5643;50.856;12.088;2023-03-21T19:57:42;1.23;;;1.10;;
11173;SDS011;5643;50.856;12.088;2023-03-21T20:00:14;1.83;;;1.13;;
11173;SDS011;5643;50.856;12.088;2023-03-21T20:02:42;1.57;;;1.20;;
11173;SDS011;5643;50.856;12.088;2023-03-21T20:05:10;2.03;;;1.50;;
11173;SDS011;5643;50.856;12.088;2023-03-21T20:07:38;2.50;;;1.67;;
11173;SDS011;5643;50.856;12.088;2023-03-21T20:10:10;1.53;;;1.43;;
11173;SDS011;5643;50.856;12.088;2023-03-21T20:12:39;1.83;;;1.30;;
11173;SDS011;5643;50.856;12.088;2023-03-21T20:15:07;1.73;;;1.30;;
11173;SDS011;5643;50.856;12.088;2023-03-21T20:17:35;1.50;;;1.40;;
11173;SDS011;5643;50.856;12.088;2023-03-21T20:20:03;1.80;;;1.70;;
11173;SDS011;5643;50.856;12.088;2023-03-21T20:22:38;2.13;;;1.60;;
11173;SDS011;5643;50.856;12.088;2023-03-21T20:25:06;2.90;;;1.70;;
11173;SDS011;5643;50.856;12.088;2023-03-21T20:27:34;2.10;;;1.60;;
11173;SDS011;5643;50.856;12.088;2023-03-21T20:30:02;2.63;;;1.70;;
11173;SDS011;5643;50.856;12.088;2023-03-21T20:32:36;1.60;;;1.50;;
11173;SDS011;5643;50.856;12.088;2023-03-21T20:35:06;1.87;;;1.70;;
11173;SDS011;5643;50.856;12.088;2023-03-21T20:37:33;2.07;;;1.47;;
11173;SDS011;5643;50.856;12.088;2023-03-21T20:40:01;1.80;;;1.70;;
11173;SDS011;5643;50.856;12.088;2023-03-21T21:43:34;2.60;;;2.40;;
11173;SDS011;5643;50.856;12.088;2023-03-21T21:46:01;3.00;;;2.50;;
11173;SDS011;5643;50.856;12.088;2023-03-21T21:48:29;2.70;;;2.50;;
11173;SDS011;5643;50.856;12.088;2023-03-21T21:50:57;2.73;;;2.53;;
11173;SDS011;5643;50.856;12.088;2023-03-21T21:53:26;2.83;;;2.60;;
11173;SDS011;5643;50.856;12.088;2023-03-21T21:55:53;2.80;;;2.60;;
11173;SDS011;5643;50.856;12.088;2023-03-21T21:58:21;3.90;;;2.93;;
11173;SDS011;5643;50.856;12.088;2023-03-21T22:00:51;3.10;;;2.80;;
11173;SDS011;5643;50.856;12.088;2023-03-21T22:03:19;3.07;;;2.77;;
11173;SDS011;5643;50.856;12.088;2023-03-21T22:05:47;3.13;;;2.80;;
11173;SDS011;5643;50.856;12.088;2023-03-21T22:08:15;3.07;;;2.77;;
11173;SDS011;5643;50.856;12.088;2023-03-21T22:10:43;3.50;;;3.20;;
11173;SDS011;5643;50.856;12.088;2023-03-21T22:13:11;3.40;;;3.10;;
11173;SDS011;5643;50.856;12.088;2023-03-21T22:15:38;3.97;;;3.00;;
11173;SDS011;5643;50.856;12.088;2023-03-21T22:18:07;3.30;;;3.00;;
11173;SDS011;5643;50.856;12.088;2023-03-21T22:20:34;2.93;;;2.73;;
11173;SDS011;5643;50.856;12.088;2023-03-21T22:23:04;2.77;;;2.50;;
11173;SDS011;5643;50.856;12.088;2023-03-21T22:25:31;3.33;;;3.03;;
11173;SDS011;5643;50.856;12.088;2023-03-21T22:27:58;3.50;;;3.20;;
11173;SDS011;5643;50.856;12.088;2023-03-21T22:30:26;3.63;;;3.10;;
11173;SDS011;5643;50.856;12.088;2023-03-21T22:32:53;3.27;;;2.70;;
11173;SDS011;5643;50.856;12.088;2023-03-21T22:35:22;3.23;;;2.90;;
11173;SDS011;5643;50.856;12.088;2023-03-21T22:37:49;3.10;;;2.80;;
11173;SDS011;5643;50.856;12.088;2023-03-21T22:40:16;3.60;;;3.10;;
